createdAt,value
2022-10-09T00:02:26.655Z,8.95
2022-10-09T00:04:55.000Z,7.25
2022-10-09T00:07:22.520Z,7.78
2022-10-09T00:09:50.342Z,7.43
2022-10-09T00:12:21.202Z,7.82
2022-10-09T00:14:49.134Z,7.88
2022-10-09T00:17:21.827Z,7.75
2022-10-09T00:19:53.033Z,7.75
2022-10-09T00:22:21.162Z,8.00
2022-10-09T00:24:48.446Z,7.93
2022-10-09T00:27:16.416Z,8.05
2022-10-09T00:29:45.213Z,7.75
2022-10-09T00:32:13.560Z,8.00
2022-10-09T00:34:41.826Z,7.50
2022-10-09T00:37:09.610Z,8.35
2022-10-09T00:39:36.866Z,7.97
2022-10-09T00:42:05.231Z,8.65
2022-10-09T00:44:58.279Z,7.93
2022-10-09T00:47:39.222Z,8.60
2022-10-09T00:50:50.608Z,7.03
2022-10-09T00:53:22.786Z,7.93
2022-10-09T00:55:55.509Z,8.07
2022-10-09T00:58:27.349Z,7.50
2022-10-09T01:00:54.982Z,8.40
2022-10-09T01:03:22.299Z,7.97
2022-10-09T01:05:55.529Z,8.20
2022-10-09T01:08:36.378Z,8.32
2022-10-09T01:11:33.796Z,8.13
2022-10-09T01:14:01.150Z,8.05
2022-10-09T01:16:44.645Z,8.73
2022-10-09T01:19:33.816Z,8.40
2022-10-09T01:22:29.335Z,9.05
2022-10-09T01:25:17.854Z,8.90
2022-10-09T01:27:45.386Z,8.88
2022-10-09T01:30:13.879Z,8.75
2022-10-09T01:32:53.568Z,9.27
2022-10-09T01:35:24.751Z,8.80
2022-10-09T01:37:56.127Z,9.02
2022-10-09T01:40:26.088Z,8.82
2022-10-09T01:42:53.851Z,9.10
2022-10-09T01:45:21.291Z,8.40
2022-10-09T01:47:48.764Z,9.35
2022-10-09T01:50:35.164Z,8.27
2022-10-09T01:53:10.915Z,8.10
2022-10-09T01:56:16.714Z,8.32
2022-10-09T01:58:59.849Z,8.60
2022-10-09T02:01:41.487Z,8.50
2022-10-09T02:04:30.346Z,8.10
2022-10-09T02:07:04.338Z,8.48
2022-10-09T02:09:41.235Z,7.57
2022-10-09T02:12:30.242Z,7.97
2022-10-09T02:15:07.542Z,7.15
2022-10-09T02:17:47.846Z,7.03
2022-10-09T02:20:34.406Z,7.78
2022-10-09T02:23:12.352Z,8.10
2022-10-09T02:25:40.408Z,8.45
2022-10-09T02:28:14.284Z,7.88
2022-10-09T02:31:26.165Z,7.13
2022-10-09T02:34:09.744Z,7.47
2022-10-09T02:36:39.166Z,8.13
2022-10-09T02:39:11.425Z,7.38
2022-10-09T02:41:43.302Z,8.10
2022-10-09T02:44:20.183Z,8.57
2022-10-09T02:46:53.191Z,7.55
2022-10-09T02:49:23.350Z,7.65
2022-10-09T02:52:00.961Z,7.93
2022-10-09T02:54:36.726Z,9.13
2022-10-09T02:57:05.191Z,8.70
2022-10-09T02:59:44.809Z,9.07
2022-10-09T03:02:18.845Z,9.07
2022-10-09T03:04:47.699Z,8.57
2022-10-09T03:10:12.144Z,9.32
2022-10-09T03:12:42.884Z,8.65
2022-10-09T03:15:14.021Z,8.32
2022-10-09T03:17:49.384Z,9.65
2022-10-09T03:20:17.834Z,8.27
2022-10-09T03:22:45.389Z,9.27
2022-10-09T03:25:12.769Z,8.00
2022-10-09T03:27:43.282Z,8.95
2022-10-09T03:30:16.574Z,8.20
2022-10-09T03:32:44.094Z,7.32
2022-10-09T03:35:13.061Z,8.00
2022-10-09T03:37:40.584Z,7.32
2022-10-09T03:40:08.373Z,7.85
2022-10-09T03:42:35.791Z,7.10
2022-10-09T03:45:06.752Z,8.07
2022-10-09T03:50:19.867Z,7.97
2022-10-09T03:52:47.799Z,7.63
2022-10-09T03:55:21.112Z,7.05
2022-10-09T03:57:50.943Z,7.20
2022-10-09T04:00:19.098Z,7.47
2022-10-09T04:02:48.366Z,7.35
2022-10-09T04:05:16.360Z,6.40
2022-10-09T04:07:53.430Z,7.63
2022-10-09T04:10:23.286Z,6.63
2022-10-09T04:12:52.491Z,7.07
2022-10-09T04:15:22.610Z,6.65
2022-10-09T04:17:52.436Z,6.88
2022-10-09T04:20:22.850Z,6.93
2022-10-09T04:22:50.964Z,6.50
2022-10-09T04:25:18.726Z,7.40
2022-10-09T04:27:46.591Z,6.88
2022-10-09T04:30:14.581Z,7.00
2022-10-09T04:32:44.146Z,7.13
2022-10-09T04:35:11.989Z,7.25
2022-10-09T04:37:41.545Z,7.15
2022-10-09T04:40:10.013Z,7.03
2022-10-09T04:42:38.634Z,6.78
2022-10-09T04:45:10.674Z,7.18
2022-10-09T04:47:39.015Z,6.45
2022-10-09T04:50:09.239Z,6.43
2022-10-09T04:52:39.869Z,6.57
2022-10-09T04:55:08.675Z,7.38
2022-10-09T04:57:36.125Z,6.72
2022-10-09T05:00:05.770Z,6.35
2022-10-09T05:02:33.333Z,6.20
2022-10-09T05:05:01.747Z,6.57
2022-10-09T05:07:29.817Z,6.93
2022-10-09T05:09:58.147Z,7.05
2022-10-09T05:12:29.078Z,6.70
2022-10-09T05:14:59.444Z,7.75
2022-10-09T05:17:31.105Z,7.35
2022-10-09T05:19:58.874Z,6.30
2022-10-09T05:22:26.609Z,7.78
2022-10-09T05:24:55.009Z,7.40
2022-10-09T05:27:22.671Z,6.50
2022-10-09T05:29:54.028Z,7.13
2022-10-09T05:32:21.696Z,7.90
2022-10-09T05:34:49.395Z,7.75
2022-10-09T05:37:17.263Z,7.90
2022-10-09T05:39:45.501Z,7.38
2022-10-09T05:42:13.000Z,8.52
2022-10-09T05:44:40.707Z,8.30
2022-10-09T05:47:08.625Z,8.07
2022-10-09T05:49:39.011Z,8.43
2022-10-09T05:52:06.912Z,8.75
2022-10-09T05:54:34.692Z,8.75
2022-10-09T05:57:05.325Z,8.80
2022-10-09T05:59:33.591Z,9.45
2022-10-09T06:02:03.468Z,9.15
2022-10-09T06:04:31.217Z,8.70
2022-10-09T06:07:00.943Z,9.82
2022-10-09T06:09:31.158Z,8.38
2022-10-09T06:11:58.871Z,8.73
2022-10-09T06:14:27.036Z,9.50
2022-10-09T06:17:01.384Z,8.45
2022-10-09T06:19:32.074Z,10.38
2022-10-09T06:22:02.927Z,9.30
2022-10-09T06:24:35.957Z,10.02
2022-10-09T06:27:04.086Z,9.82
2022-10-09T06:29:32.420Z,9.70
2022-10-09T06:32:00.231Z,10.68
2022-10-09T06:34:28.141Z,10.30
2022-10-09T06:36:55.956Z,9.90
2022-10-09T06:39:23.680Z,10.23
2022-10-09T06:41:57.204Z,9.68
2022-10-09T06:44:39.783Z,9.32
2022-10-09T06:47:10.978Z,10.13
2022-10-09T06:49:38.946Z,10.85
2022-10-09T06:52:06.593Z,10.52
2022-10-09T06:54:37.263Z,10.13
2022-10-09T06:57:05.660Z,9.70
2022-10-09T06:59:35.367Z,9.05
2022-10-09T07:02:05.904Z,9.07
2022-10-09T07:04:33.853Z,10.13
2022-10-09T07:07:01.288Z,9.05
2022-10-09T07:09:32.019Z,9.32
2022-10-09T07:12:00.097Z,9.95
2022-10-09T07:14:30.009Z,9.77
2022-10-09T07:16:58.288Z,11.20
2022-10-09T07:19:26.104Z,10.40
2022-10-09T07:21:53.966Z,9.82
2022-10-09T07:24:24.847Z,10.50
2022-10-09T07:26:58.046Z,10.80
2022-10-09T07:29:30.819Z,9.95
2022-10-09T07:31:59.099Z,10.15
2022-10-09T07:34:26.557Z,10.88
2022-10-09T07:36:53.845Z,9.60
2022-10-09T07:39:21.367Z,9.63
2022-10-09T07:41:51.891Z,9.65
2022-10-09T07:44:22.724Z,9.55
2022-10-09T07:46:54.025Z,10.27
2022-10-09T07:49:22.967Z,9.40
2022-10-09T07:51:50.535Z,9.85
2022-10-09T07:54:18.386Z,9.90
2022-10-09T07:56:45.647Z,10.73
2022-10-09T07:59:15.454Z,10.18
2022-10-09T08:01:47.833Z,10.35
2022-10-09T08:04:15.591Z,9.52
2022-10-09T08:06:46.076Z,9.48
2022-10-09T08:09:13.531Z,9.05
2022-10-09T08:11:44.269Z,9.23
2022-10-09T08:14:18.212Z,9.30
2022-10-09T08:16:47.573Z,10.45
2022-10-09T08:19:15.303Z,10.15
2022-10-09T08:21:45.459Z,10.05
2022-10-09T08:24:16.558Z,8.82
2022-10-09T08:26:47.488Z,9.00
2022-10-09T08:29:17.184Z,8.60
2022-10-09T08:31:45.217Z,8.98
2022-10-09T08:34:16.621Z,9.27
2022-10-09T08:36:48.524Z,10.25
2022-10-09T08:39:16.539Z,8.93
2022-10-09T08:41:58.134Z,9.75
2022-10-09T08:44:40.979Z,9.77
2022-10-09T08:47:12.161Z,8.63
2022-10-09T08:49:48.045Z,9.52
2022-10-09T08:52:39.153Z,10.80
2022-10-09T08:55:27.601Z,10.45
2022-10-09T08:58:02.807Z,10.32
2022-10-09T09:01:01.288Z,10.63
2022-10-09T09:04:02.934Z,9.80
2022-10-09T09:06:45.317Z,10.85
2022-10-09T09:09:41.599Z,9.10
2022-10-09T09:12:46.134Z,9.77
2022-10-09T09:15:59.097Z,10.30
2022-10-09T09:19:02.399Z,9.98
2022-10-09T09:21:52.248Z,9.52
2022-10-09T09:24:27.070Z,10.30
2022-10-09T09:27:04.537Z,10.50
2022-10-09T09:32:12.203Z,10.95
2022-10-09T09:34:44.658Z,9.57
2022-10-09T09:37:13.749Z,10.27
2022-10-09T09:42:48.467Z,11.60
2022-10-09T09:45:28.958Z,10.82
2022-10-09T09:48:24.558Z,13.13
2022-10-09T09:51:23.538Z,11.73
2022-10-09T09:54:15.297Z,14.25
2022-10-09T09:59:45.144Z,9.50
2022-10-09T10:02:23.007Z,9.15
2022-10-09T10:05:15.169Z,9.75
2022-10-09T10:07:53.591Z,9.57
2022-10-09T10:10:27.980Z,9.27
2022-10-09T10:13:11.145Z,8.70
2022-10-09T10:15:55.768Z,7.88
2022-10-09T10:18:58.535Z,7.97
2022-10-09T10:21:53.435Z,4.03
2022-10-09T10:24:34.746Z,3.28
2022-10-09T10:27:47.181Z,4.20
2022-10-09T10:30:22.533Z,4.00
2022-10-09T10:33:27.732Z,3.05
2022-10-09T10:36:02.913Z,3.83
2022-10-09T10:39:11.924Z,3.92
2022-10-09T10:41:55.181Z,4.00
2022-10-09T10:44:29.793Z,4.20
2022-10-09T10:49:51.621Z,3.47
2022-10-09T10:52:41.381Z,3.33
2022-10-09T10:55:34.052Z,4.20
2022-10-09T11:01:32.885Z,3.60
2022-10-09T11:04:37.737Z,3.25
2022-10-09T11:07:38.226Z,3.50
2022-10-09T11:10:29.755Z,4.40
2022-10-09T11:13:04.448Z,3.08
2022-10-09T11:16:06.573Z,2.60
2022-10-09T11:18:46.306Z,2.83
2022-10-09T11:21:44.893Z,4.30
2022-10-09T11:24:37.837Z,3.50
2022-10-09T11:27:35.583Z,3.42
2022-10-09T11:30:18.491Z,3.92
2022-10-09T11:33:05.356Z,2.97
2022-10-09T11:36:01.780Z,3.65
2022-10-09T11:38:41.772Z,4.20
2022-10-09T11:41:09.943Z,3.33
2022-10-09T11:43:44.973Z,4.15
2022-10-09T11:46:34.771Z,4.78
2022-10-09T11:49:34.997Z,4.03
2022-10-09T11:52:16.074Z,3.35
2022-10-09T11:54:43.895Z,3.10
2022-10-09T11:57:15.125Z,3.10
2022-10-09T12:00:15.153Z,3.13
2022-10-09T12:03:06.727Z,4.65
2022-10-09T12:05:50.316Z,8.50
2022-10-09T12:08:39.011Z,2.83
2022-10-09T12:11:28.338Z,3.45
2022-10-09T12:14:18.285Z,3.17
2022-10-09T12:20:09.147Z,3.85
2022-10-09T12:23:25.762Z,3.55
2022-10-09T12:26:06.848Z,4.22
2022-10-09T12:29:06.800Z,4.45
2022-10-09T12:31:40.670Z,3.15
2022-10-09T12:34:34.149Z,3.33
2022-10-09T12:37:13.940Z,4.65
2022-10-09T12:39:43.979Z,3.10
2022-10-09T12:42:40.859Z,7.18
2022-10-09T12:45:24.086Z,4.85
2022-10-09T12:47:53.023Z,3.50
2022-10-09T12:50:37.179Z,3.88
2022-10-09T12:53:13.652Z,3.38
2022-10-09T12:56:09.256Z,3.20
2022-10-09T12:58:39.633Z,3.78
2022-10-09T13:01:19.904Z,3.30
2022-10-09T13:04:24.557Z,3.70
2022-10-09T13:06:57.100Z,3.00
2022-10-09T13:09:40.092Z,3.35
2022-10-09T13:12:29.566Z,3.53
2022-10-09T13:15:33.918Z,5.88
2022-10-09T13:18:23.694Z,3.33
2022-10-09T13:21:25.562Z,3.22
2022-10-09T13:26:53.472Z,3.25
2022-10-09T13:29:30.119Z,3.40
2022-10-09T13:32:14.141Z,2.75
2022-10-09T13:34:42.911Z,3.30
2022-10-09T13:37:20.631Z,2.40
2022-10-09T13:39:47.947Z,2.72
2022-10-09T13:42:27.929Z,2.90
2022-10-09T13:45:04.329Z,2.47
2022-10-09T13:47:39.837Z,3.15
2022-10-09T13:50:13.428Z,3.63
2022-10-09T13:52:51.859Z,3.83
2022-10-09T13:55:22.080Z,3.35
2022-10-09T13:57:52.303Z,3.22
2022-10-09T14:00:21.162Z,3.55
2022-10-09T14:02:53.084Z,7.55
2022-10-09T14:05:27.453Z,5.15
2022-10-09T14:07:55.255Z,3.97
2022-10-09T14:10:26.261Z,3.75
2022-10-09T14:12:57.653Z,2.63
2022-10-09T14:15:31.368Z,3.05
2022-10-09T14:18:04.752Z,3.75
2022-10-09T14:20:38.332Z,3.70
2022-10-09T14:23:12.097Z,3.13
2022-10-09T14:25:41.762Z,3.30
2022-10-09T14:28:11.713Z,3.60
2022-10-09T14:30:45.883Z,4.00
2022-10-09T14:33:17.885Z,3.50
2022-10-09T14:35:55.847Z,2.75
2022-10-09T14:38:28.057Z,3.08
2022-10-09T14:41:06.739Z,4.72
2022-10-09T14:43:36.366Z,2.92
2022-10-09T14:46:15.986Z,3.47
2022-10-09T14:49:03.654Z,2.90
2022-10-09T14:51:37.071Z,3.55
2022-10-09T14:54:27.906Z,3.00
2022-10-09T14:57:04.253Z,4.28
2022-10-09T14:59:32.470Z,5.00
2022-10-09T15:02:07.742Z,2.65
2022-10-09T15:04:37.735Z,2.75
2022-10-09T15:07:05.625Z,2.70
2022-10-09T15:09:33.438Z,3.20
2022-10-09T15:12:05.186Z,3.33
2022-10-09T15:14:35.657Z,2.85
2022-10-09T15:17:15.559Z,2.88
2022-10-09T15:19:50.336Z,2.67
2022-10-09T15:22:30.702Z,3.35
2022-10-09T15:25:03.418Z,2.75
2022-10-09T15:27:54.855Z,2.60
2022-10-09T15:30:49.742Z,3.80
2022-10-09T15:33:17.878Z,3.47
2022-10-09T15:35:48.943Z,4.00
2022-10-09T15:38:25.717Z,3.22
2022-10-09T15:41:08.345Z,2.92
2022-10-09T15:43:53.163Z,2.75
2022-10-09T15:46:29.237Z,3.45
2022-10-09T15:49:03.583Z,3.30
2022-10-09T15:51:48.286Z,3.30
2022-10-09T15:54:30.445Z,3.28
2022-10-09T15:57:01.362Z,2.60
2022-10-09T15:59:31.910Z,3.70
2022-10-09T16:02:12.868Z,2.95
2022-10-09T16:04:51.269Z,3.80
2022-10-09T16:07:24.058Z,3.08
2022-10-09T16:09:57.674Z,3.00
2022-10-09T16:12:38.386Z,3.22
2022-10-09T16:15:21.088Z,3.08
2022-10-09T16:17:59.227Z,3.72
2022-10-09T16:20:58.902Z,3.22
2022-10-09T16:23:33.387Z,3.88
2022-10-09T16:26:17.888Z,3.53
2022-10-09T16:28:49.681Z,2.85
2022-10-09T16:31:26.477Z,3.58
2022-10-09T16:33:57.529Z,3.13
2022-10-09T16:36:36.802Z,3.28
2022-10-09T16:39:27.473Z,3.00
2022-10-09T16:42:06.620Z,3.13
2022-10-09T16:45:02.313Z,2.97
2022-10-09T16:47:44.170Z,2.95
2022-10-09T16:50:12.810Z,3.65
2022-10-09T16:52:49.965Z,3.03
2022-10-09T16:55:22.570Z,3.40
2022-10-09T16:57:58.407Z,3.07
2022-10-09T17:00:52.894Z,3.28
2022-10-09T17:03:30.995Z,3.33
2022-10-09T17:06:08.320Z,3.65
2022-10-09T17:08:42.606Z,3.28
2022-10-09T17:11:25.561Z,3.38
2022-10-09T17:14:03.695Z,3.10
2022-10-09T17:16:44.625Z,3.50
2022-10-09T17:19:16.108Z,3.33
2022-10-09T17:21:48.395Z,4.43
2022-10-09T17:24:29.318Z,3.30
2022-10-09T17:27:07.890Z,3.40
2022-10-09T17:29:46.131Z,3.08
2022-10-09T17:32:40.234Z,3.17
2022-10-09T17:38:00.052Z,3.70
2022-10-09T17:40:30.563Z,3.50
2022-10-09T17:43:12.884Z,3.65
2022-10-09T17:45:49.100Z,3.78
2022-10-09T17:48:49.504Z,3.65
2022-10-09T17:51:44.374Z,3.30
2022-10-09T17:54:23.651Z,5.13
2022-10-09T17:57:14.781Z,4.05
2022-10-09T17:59:54.102Z,3.42
2022-10-09T18:02:36.112Z,3.85
2022-10-09T18:05:19.898Z,3.63
2022-10-09T18:07:53.925Z,4.28
2022-10-09T18:10:46.152Z,4.47
2022-10-09T18:13:22.764Z,4.47
2022-10-09T18:16:00.568Z,4.40
2022-10-09T18:19:01.651Z,4.25
2022-10-09T18:24:19.568Z,4.65
2022-10-09T18:27:05.565Z,4.72
2022-10-09T18:29:47.121Z,4.78
2022-10-09T18:32:38.638Z,4.88
2022-10-09T18:35:24.327Z,4.00
2022-10-09T18:37:57.909Z,5.20
2022-10-09T18:40:28.301Z,3.83
2022-10-09T18:43:02.129Z,4.72
2022-10-09T18:45:48.206Z,8.27
2022-10-09T18:48:27.092Z,5.35
2022-10-09T18:51:03.866Z,4.85
2022-10-09T18:53:43.406Z,4.50
2022-10-09T18:56:16.151Z,4.22
2022-10-09T18:59:02.164Z,4.40
2022-10-09T19:01:31.077Z,4.13
2022-10-09T19:04:02.732Z,4.75
2022-10-09T19:06:41.522Z,5.57
2022-10-09T19:09:27.084Z,5.50
2022-10-09T19:12:03.021Z,5.72
2022-10-09T19:14:33.880Z,4.45
2022-10-09T19:17:08.985Z,4.80
2022-10-09T19:19:41.798Z,5.40
2022-10-09T19:22:22.890Z,4.93
2022-10-09T19:25:00.268Z,4.65
2022-10-09T19:27:37.426Z,4.28
2022-10-09T19:30:07.719Z,5.47
2022-10-09T19:32:53.505Z,4.65
2022-10-09T19:35:22.107Z,4.43
2022-10-09T19:38:03.391Z,4.60
2022-10-09T19:40:41.924Z,4.78
2022-10-09T19:43:19.108Z,4.43
2022-10-09T19:46:00.637Z,4.20
2022-10-09T19:48:34.119Z,4.03
2022-10-09T19:51:21.030Z,4.75
2022-10-09T19:54:00.987Z,3.88
2022-10-09T19:59:42.740Z,4.60
2022-10-09T20:02:20.186Z,4.50
2022-10-09T20:04:52.682Z,4.60
2022-10-09T20:07:29.189Z,4.15
2022-10-09T20:10:13.297Z,6.18
2022-10-09T20:13:04.512Z,5.03
2022-10-09T20:15:51.664Z,4.70
2022-10-09T20:18:23.573Z,6.35
2022-10-09T20:21:07.870Z,5.10
2022-10-09T20:24:05.768Z,6.00
2022-10-09T20:30:17.317Z,7.32
2022-10-09T20:32:55.411Z,9.25
2022-10-09T20:35:36.993Z,10.18
2022-10-09T20:38:05.870Z,8.18
2022-10-09T20:40:37.531Z,8.10
2022-10-09T20:43:14.104Z,7.47
2022-10-09T20:45:48.320Z,7.43
2022-10-09T20:49:01.264Z,7.78
2022-10-09T20:51:43.097Z,7.32
2022-10-09T20:54:40.956Z,8.40
2022-10-09T20:57:23.790Z,8.20
2022-10-09T21:00:24.059Z,7.40
2022-10-09T21:03:00.971Z,8.23
2022-10-09T21:05:59.446Z,11.48
2022-10-09T21:11:48.474Z,10.30
2022-10-09T21:14:43.611Z,8.23
2022-10-09T21:17:25.803Z,7.72
2022-10-09T21:20:06.769Z,7.65
2022-10-09T21:22:43.094Z,7.07
2022-10-09T21:25:27.905Z,6.95
2022-10-09T21:28:06.676Z,6.57
2022-10-09T21:30:50.587Z,6.88
2022-10-09T21:36:56.303Z,5.82
2022-10-09T21:42:50.628Z,6.20
2022-10-09T21:45:49.543Z,5.97
2022-10-09T21:48:32.671Z,5.03
2022-10-09T21:51:01.870Z,4.93
2022-10-09T21:53:49.581Z,4.10
2022-10-09T21:56:30.689Z,4.57
2022-10-09T21:59:26.061Z,3.60
2022-10-09T22:02:09.646Z,4.13
2022-10-09T22:04:38.739Z,3.60
2022-10-09T22:07:10.626Z,3.92
2022-10-09T22:09:41.905Z,3.53
2022-10-09T22:12:19.898Z,3.42
2022-10-09T22:14:59.111Z,4.32
2022-10-09T22:17:30.548Z,3.20
2022-10-09T22:20:03.953Z,3.55
2022-10-09T22:22:43.145Z,3.63
2022-10-09T22:25:19.125Z,4.20
2022-10-09T22:28:00.728Z,3.63
2022-10-09T22:30:34.741Z,3.80
2022-10-09T22:33:03.068Z,3.55
2022-10-09T22:35:32.904Z,3.42
2022-10-09T22:38:06.791Z,3.70
2022-10-09T22:40:55.363Z,3.38
2022-10-09T22:43:28.197Z,3.70
2022-10-09T22:45:57.246Z,3.95
2022-10-09T22:51:18.383Z,2.85
2022-10-09T22:53:50.519Z,3.67
2022-10-09T22:56:28.260Z,4.30
2022-10-09T22:59:29.581Z,3.25
2022-10-09T23:02:12.224Z,2.97
2022-10-09T23:04:50.225Z,3.22
2022-10-09T23:07:17.944Z,3.47
2022-10-09T23:09:48.564Z,3.42
2022-10-09T23:12:24.584Z,3.42
2022-10-09T23:14:58.241Z,3.42
2022-10-09T23:17:32.237Z,2.83
2022-10-09T23:20:13.422Z,3.35
2022-10-09T23:22:41.487Z,2.78
2022-10-09T23:25:12.327Z,2.97
2022-10-09T23:27:53.871Z,3.00
2022-10-09T23:30:23.845Z,2.90
2022-10-09T23:32:54.008Z,3.40
2022-10-09T23:35:27.007Z,3.28
2022-10-09T23:37:54.571Z,2.63
2022-10-09T23:40:26.616Z,3.00
2022-10-09T23:42:54.440Z,3.30
2022-10-09T23:45:25.862Z,3.38
2022-10-09T23:47:58.586Z,2.83
2022-10-09T23:50:30.415Z,3.75
2022-10-09T23:52:58.647Z,3.53
2022-10-09T23:55:29.046Z,3.45
2022-10-09T23:58:02.303Z,3.58
